createdAt,value
2022-11-08T00:01:58.299Z,19.11
2022-11-08T00:04:26.107Z,19.10
2022-11-08T00:07:11.393Z,19.09
2022-11-08T00:09:56.686Z,19.08
2022-11-08T00:12:41.872Z,19.10
2022-11-08T00:15:11.407Z,19.09
2022-11-08T00:17:39.069Z,19.07
2022-11-08T00:20:08.793Z,19.07
2022-11-08T00:22:36.654Z,19.06
2022-11-08T00:25:04.661Z,19.05
2022-11-08T00:27:32.474Z,19.05
2022-11-08T00:30:00.103Z,19.05
2022-11-08T00:32:29.106Z,19.05
2022-11-08T00:34:56.710Z,19.04
2022-11-08T00:37:24.311Z,19.02
2022-11-08T00:39:51.857Z,19.03
2022-11-08T00:42:19.487Z,19.03
2022-11-08T00:44:47.076Z,19.03
2022-11-08T00:47:14.621Z,19.02
2022-11-08T00:49:43.709Z,19.03
2022-11-08T00:52:11.377Z,19.02
2022-11-08T00:54:39.124Z,19.02
2022-11-08T00:57:06.855Z,19.02
2022-11-08T00:59:34.687Z,19.02
2022-11-08T01:02:02.714Z,19.03
2022-11-08T01:04:30.532Z,19.03
2022-11-08T01:06:59.936Z,19.02
2022-11-08T01:09:27.568Z,19.02
2022-11-08T01:11:55.262Z,19.01
2022-11-08T01:14:22.873Z,19.02
2022-11-08T01:16:50.612Z,19.03
2022-11-08T01:19:18.334Z,19.02
2022-11-08T01:21:45.955Z,19.01
2022-11-08T01:24:14.936Z,19.01
2022-11-08T01:26:42.589Z,19.02
2022-11-08T01:29:10.195Z,19.02
2022-11-08T01:31:38.027Z,19.03
2022-11-08T01:34:05.770Z,19.01
2022-11-08T01:36:33.406Z,19.01
2022-11-08T01:39:01.203Z,19.02
2022-11-08T01:41:30.236Z,19.01
2022-11-08T01:43:58.901Z,19.00
2022-11-08T01:46:34.384Z,18.99
2022-11-08T01:49:20.025Z,19.00
2022-11-08T01:51:49.532Z,18.99
2022-11-08T01:54:19.249Z,18.99
2022-11-08T01:56:48.269Z,19.00
2022-11-08T01:59:17.367Z,18.99
2022-11-08T02:01:45.251Z,18.98
2022-11-08T02:04:13.707Z,18.98
2022-11-08T02:06:41.544Z,18.98
2022-11-08T02:09:09.841Z,18.97
2022-11-08T02:11:37.465Z,18.97
2022-11-08T02:14:06.774Z,18.95
2022-11-08T02:16:34.350Z,18.95
2022-11-08T02:19:01.908Z,18.95
2022-11-08T02:21:31.372Z,18.94
2022-11-08T02:24:01.390Z,18.93
2022-11-08T02:26:31.163Z,18.93
2022-11-08T02:28:59.025Z,18.92
2022-11-08T02:31:26.783Z,18.90
2022-11-08T02:33:54.454Z,18.89
2022-11-08T02:36:22.836Z,18.89
2022-11-08T02:38:52.865Z,18.89
2022-11-08T02:41:21.857Z,18.88
2022-11-08T02:43:49.468Z,18.87
2022-11-08T02:46:17.225Z,18.87
2022-11-08T02:48:44.855Z,18.86
2022-11-08T02:51:12.489Z,18.85
2022-11-08T02:53:40.300Z,18.86
2022-11-08T02:56:08.452Z,18.86
2022-11-08T02:58:37.503Z,18.85
2022-11-08T03:01:05.166Z,18.83
2022-11-08T03:03:32.817Z,18.84
2022-11-08T03:06:00.501Z,18.83
2022-11-08T03:08:28.199Z,18.82
2022-11-08T03:10:55.772Z,18.81
2022-11-08T03:13:23.328Z,18.80
2022-11-08T03:15:52.512Z,18.79
2022-11-08T03:18:20.488Z,18.80
2022-11-08T03:20:48.312Z,18.80
2022-11-08T03:23:16.024Z,18.80
2022-11-08T03:25:43.793Z,18.79
2022-11-08T03:28:11.469Z,18.79
2022-11-08T03:30:39.142Z,18.78
2022-11-08T03:33:08.239Z,18.78
2022-11-08T03:35:35.996Z,18.77
2022-11-08T03:38:03.709Z,18.76
2022-11-08T03:40:31.382Z,18.76
2022-11-08T03:42:59.125Z,18.76
2022-11-08T03:45:46.401Z,18.75
2022-11-08T03:48:35.683Z,18.74
2022-11-08T03:51:23.610Z,18.75
2022-11-08T03:53:51.436Z,18.74
2022-11-08T03:56:19.073Z,18.73
2022-11-08T03:58:46.655Z,18.74
2022-11-08T04:01:14.327Z,18.72
2022-11-08T04:03:43.369Z,18.72
2022-11-08T04:06:10.916Z,18.72
2022-11-08T04:08:38.524Z,18.71
2022-11-08T04:11:20.260Z,18.72
2022-11-08T04:14:05.350Z,18.72
2022-11-08T04:16:33.263Z,18.70
2022-11-08T04:19:20.121Z,18.69
2022-11-08T04:21:48.186Z,18.70
2022-11-08T04:24:15.789Z,18.69
2022-11-08T04:26:43.388Z,18.69
2022-11-08T04:29:10.970Z,18.69
2022-11-08T04:31:38.509Z,18.68
2022-11-08T04:34:07.640Z,18.68
2022-11-08T04:36:35.252Z,18.67
2022-11-08T04:39:02.930Z,18.67
2022-11-08T04:41:30.537Z,18.66
2022-11-08T04:43:58.298Z,18.66
2022-11-08T04:46:26.584Z,18.66
2022-11-08T04:48:55.943Z,18.64
2022-11-08T04:51:26.694Z,18.64
2022-11-08T04:53:54.988Z,18.64
2022-11-08T04:56:22.851Z,18.64
2022-11-08T04:58:51.597Z,18.64
2022-11-08T05:01:19.978Z,18.64
2022-11-08T05:03:48.246Z,18.64
2022-11-08T05:06:17.033Z,18.63
2022-11-08T05:08:46.099Z,18.61
2022-11-08T05:11:14.450Z,18.61
2022-11-08T05:13:42.256Z,18.60
2022-11-08T05:16:11.749Z,18.61
2022-11-08T05:18:41.699Z,18.61
2022-11-08T05:21:28.216Z,18.59
2022-11-08T05:23:57.096Z,18.59
2022-11-08T05:26:24.657Z,18.59
2022-11-08T05:28:52.249Z,18.59
2022-11-08T05:31:19.819Z,18.58
2022-11-08T05:33:47.760Z,18.58
2022-11-08T05:36:15.888Z,18.58
2022-11-08T05:38:43.459Z,18.57
2022-11-08T05:41:13.472Z,18.57
2022-11-08T05:43:41.129Z,18.57
2022-11-08T05:46:08.780Z,18.57
2022-11-08T05:48:36.448Z,18.57
2022-11-08T05:51:04.132Z,18.57
2022-11-08T05:53:32.053Z,18.56
2022-11-08T05:56:00.552Z,18.57
2022-11-08T05:58:29.821Z,18.56
2022-11-08T06:01:01.373Z,18.56
2022-11-08T06:03:29.902Z,18.57
2022-11-08T06:06:00.723Z,18.57
2022-11-08T06:08:28.333Z,18.56
2022-11-08T06:10:55.893Z,18.56
2022-11-08T06:13:23.661Z,18.57
2022-11-08T06:15:52.711Z,18.56
2022-11-08T06:18:20.377Z,18.57
2022-11-08T06:20:48.102Z,18.57
2022-11-08T06:23:16.887Z,18.57
2022-11-08T06:25:47.523Z,18.56
2022-11-08T06:28:15.666Z,18.57
2022-11-08T06:30:43.404Z,18.57
2022-11-08T06:33:12.437Z,18.57
2022-11-08T06:35:40.052Z,18.57
2022-11-08T06:38:09.525Z,18.56
2022-11-08T06:40:38.404Z,18.56
2022-11-08T06:43:06.047Z,18.55
2022-11-08T06:45:33.806Z,18.56
2022-11-08T06:48:01.994Z,18.55
2022-11-08T06:50:31.721Z,18.56
2022-11-08T06:52:59.369Z,18.55
2022-11-08T06:55:26.944Z,18.55
2022-11-08T06:57:54.528Z,18.54
2022-11-08T07:00:22.346Z,18.55
2022-11-08T07:02:53.190Z,18.54
2022-11-08T07:05:20.872Z,18.55
2022-11-08T07:07:52.076Z,18.54
2022-11-08T07:10:20.010Z,18.53
2022-11-08T07:12:48.072Z,18.52
2022-11-08T07:15:15.828Z,18.52
2022-11-08T07:17:43.440Z,18.51
2022-11-08T07:20:12.048Z,18.51
2022-11-08T07:22:39.660Z,18.50
2022-11-08T07:25:09.333Z,18.52
2022-11-08T07:27:37.167Z,18.53
2022-11-08T07:30:05.968Z,18.54
2022-11-08T07:32:33.665Z,18.56
2022-11-08T07:35:01.664Z,18.58
2022-11-08T07:37:29.256Z,18.59
2022-11-08T07:39:56.972Z,18.60
2022-11-08T07:42:34.244Z,18.60
2022-11-08T07:45:11.851Z,18.62
2022-11-08T07:47:39.423Z,18.64
2022-11-08T07:50:07.671Z,18.65
2022-11-08T07:52:35.233Z,18.67
2022-11-08T07:55:02.938Z,18.69
2022-11-08T07:57:32.101Z,18.70
2022-11-08T08:00:03.513Z,18.72
2022-11-08T08:02:34.178Z,18.73
2022-11-08T08:05:01.835Z,18.73
2022-11-08T08:07:29.611Z,18.74
2022-11-08T08:09:57.240Z,18.75
2022-11-08T08:12:24.972Z,18.77
2022-11-08T08:14:54.124Z,18.77
2022-11-08T08:17:21.859Z,18.79
2022-11-08T08:19:49.725Z,18.79
2022-11-08T08:22:17.518Z,18.81
2022-11-08T08:24:45.152Z,18.81
2022-11-08T08:27:12.749Z,18.82
2022-11-08T08:29:40.604Z,18.87
2022-11-08T08:32:09.620Z,18.98
2022-11-08T08:34:37.221Z,19.01
2022-11-08T08:37:04.983Z,18.99
2022-11-08T08:39:32.569Z,19.08
2022-11-08T08:42:00.384Z,19.20
2022-11-08T08:44:28.073Z,19.29
2022-11-08T08:46:56.637Z,19.39
2022-11-08T08:49:25.707Z,19.47
2022-11-08T08:51:53.344Z,19.54
2022-11-08T08:54:23.596Z,19.62
2022-11-08T08:56:53.619Z,19.69
2022-11-08T09:02:09.640Z,19.82
2022-11-08T09:04:39.041Z,19.89
2022-11-08T09:07:07.041Z,19.98
2022-11-08T09:09:36.170Z,20.06
2022-11-08T09:12:04.045Z,20.10
2022-11-08T09:14:31.611Z,20.13
2022-11-08T09:16:59.200Z,20.21
2022-11-08T09:19:26.797Z,20.29
2022-11-08T09:21:55.787Z,20.35
2022-11-08T09:24:23.662Z,20.41
2022-11-08T09:26:51.239Z,20.49
2022-11-08T09:29:18.776Z,20.55
2022-11-08T09:31:46.405Z,20.61
2022-11-08T09:34:16.340Z,20.63
2022-11-08T09:36:46.789Z,20.67
2022-11-08T09:39:16.331Z,20.67
2022-11-08T09:41:55.796Z,20.72
2022-11-08T09:44:34.176Z,20.75
2022-11-08T09:47:04.080Z,20.75
2022-11-08T09:49:33.076Z,20.74
2022-11-08T09:52:00.635Z,20.75
2022-11-08T09:54:32.475Z,20.77
2022-11-08T09:57:04.225Z,20.79
2022-11-08T09:59:35.306Z,20.80
2022-11-08T10:02:02.970Z,20.82
2022-11-08T10:04:31.887Z,20.84
2022-11-08T10:07:04.468Z,20.88
2022-11-08T10:09:41.587Z,20.91
2022-11-08T10:12:13.225Z,20.93
2022-11-08T10:14:53.740Z,20.95
2022-11-08T10:17:31.427Z,21.02
2022-11-08T10:20:07.181Z,21.09
2022-11-08T10:22:40.850Z,21.04
2022-11-08T10:25:18.595Z,21.08
2022-11-08T10:27:46.172Z,21.15
2022-11-08T10:30:17.631Z,21.22
2022-11-08T10:32:45.188Z,21.26
2022-11-08T10:35:18.828Z,21.25
2022-11-08T10:37:46.433Z,21.23
2022-11-08T10:40:18.121Z,21.20
2022-11-08T10:42:47.099Z,21.18
2022-11-08T10:45:14.739Z,21.14
2022-11-08T10:47:42.275Z,21.07
2022-11-08T10:50:14.176Z,21.01
2022-11-08T10:52:43.160Z,20.96
2022-11-08T10:55:10.822Z,20.93
2022-11-08T10:57:40.601Z,20.90
2022-11-08T11:00:18.910Z,20.87
2022-11-08T11:02:46.631Z,20.84
2022-11-08T11:05:21.961Z,20.82
2022-11-08T11:08:00.657Z,20.80
2022-11-08T11:10:30.620Z,20.82
2022-11-08T11:13:04.064Z,20.80
2022-11-08T11:15:36.130Z,20.79
2022-11-08T11:18:04.049Z,20.77
2022-11-08T11:20:31.685Z,20.76
2022-11-08T11:22:59.487Z,20.72
2022-11-08T11:25:27.206Z,20.71
2022-11-08T11:27:56.172Z,20.69
2022-11-08T11:30:29.190Z,20.64
2022-11-08T11:32:59.083Z,20.62
2022-11-08T11:35:28.078Z,20.55
2022-11-08T11:37:55.677Z,20.50
2022-11-08T11:40:27.413Z,20.46
2022-11-08T11:43:00.266Z,20.43
2022-11-08T11:45:31.443Z,20.43
2022-11-08T11:47:59.639Z,20.44
2022-11-08T11:50:33.096Z,20.41
2022-11-08T11:53:01.475Z,20.39
2022-11-08T11:55:33.857Z,20.36
2022-11-08T11:58:06.302Z,20.32
2022-11-08T12:00:35.673Z,20.28
2022-11-08T12:03:28.767Z,20.22
2022-11-08T12:06:08.519Z,20.17
2022-11-08T12:08:43.848Z,20.13
2022-11-08T12:11:22.486Z,20.09
2022-11-08T12:13:58.695Z,20.06
2022-11-08T12:16:30.127Z,20.01
2022-11-08T12:19:03.987Z,19.99
2022-11-08T12:21:34.395Z,19.98
2022-11-08T12:24:08.961Z,19.97
2022-11-08T12:26:39.218Z,19.96
2022-11-08T12:29:22.610Z,19.94
2022-11-08T12:31:58.700Z,19.92
2022-11-08T12:34:29.854Z,19.93
2022-11-08T12:37:05.656Z,19.91
2022-11-08T12:39:36.092Z,19.91
2022-11-08T12:42:32.290Z,19.88
2022-11-08T12:45:09.032Z,19.88
2022-11-08T12:47:40.817Z,19.89
2022-11-08T12:50:18.804Z,19.87
2022-11-08T12:52:54.496Z,19.85
2022-11-08T12:55:24.922Z,19.83
2022-11-08T12:57:52.615Z,19.82
2022-11-08T13:00:20.731Z,19.80
2022-11-08T13:02:56.839Z,19.80
2022-11-08T13:05:25.405Z,19.79
2022-11-08T13:07:54.838Z,19.78
2022-11-08T13:10:27.919Z,19.76
2022-11-08T13:13:16.099Z,19.77
2022-11-08T13:16:08.495Z,19.73
2022-11-08T13:18:37.544Z,19.72
2022-11-08T13:21:38.150Z,19.72
2022-11-08T13:24:50.611Z,19.70
2022-11-08T13:27:25.970Z,19.69
2022-11-08T13:29:53.671Z,19.68
2022-11-08T13:32:25.151Z,19.68
2022-11-08T13:34:56.395Z,19.69
2022-11-08T13:37:55.021Z,19.68
2022-11-08T13:40:33.520Z,19.68
2022-11-08T13:43:21.034Z,19.67
2022-11-08T13:45:48.750Z,19.64
2022-11-08T13:48:41.358Z,19.64
2022-11-08T13:51:29.729Z,19.62
2022-11-08T13:53:58.976Z,19.63
2022-11-08T13:56:45.501Z,19.61
2022-11-08T13:59:49.928Z,19.62
2022-11-08T14:02:39.874Z,19.58
2022-11-08T14:05:32.728Z,19.59
2022-11-08T14:08:22.468Z,19.58
2022-11-08T14:11:11.374Z,19.57
2022-11-08T14:14:00.572Z,19.56
2022-11-08T14:16:29.647Z,19.53
2022-11-08T14:19:07.086Z,19.53
2022-11-08T14:21:34.752Z,19.53
2022-11-08T14:24:03.796Z,19.52
2022-11-08T14:26:32.215Z,19.51
2022-11-08T14:29:00.630Z,19.50
2022-11-08T14:31:29.198Z,19.50
2022-11-08T14:33:56.884Z,19.48
2022-11-08T14:36:24.892Z,19.46
2022-11-08T14:39:00.385Z,19.47
2022-11-08T14:41:29.816Z,19.45
2022-11-08T14:43:58.490Z,19.46
2022-11-08T14:46:29.549Z,19.46
2022-11-08T14:48:58.049Z,19.45
2022-11-08T14:51:25.896Z,19.44
2022-11-08T14:53:54.025Z,19.44
2022-11-08T14:56:22.980Z,19.44
2022-11-08T14:58:52.991Z,19.42
2022-11-08T15:01:21.867Z,19.42
2022-11-08T15:03:53.127Z,19.41
2022-11-08T15:06:20.718Z,19.41
2022-11-08T15:08:50.246Z,19.39
2022-11-08T15:11:28.381Z,19.38
2022-11-08T15:13:59.397Z,19.35
2022-11-08T15:16:27.075Z,19.29
2022-11-08T15:18:54.840Z,19.28
2022-11-08T15:21:24.346Z,19.31
2022-11-08T15:23:53.244Z,19.32
2022-11-08T15:26:22.854Z,19.31
2022-11-08T15:29:02.261Z,19.31
2022-11-08T15:31:32.324Z,19.30
2022-11-08T15:33:59.968Z,19.33
2022-11-08T15:36:32.594Z,19.37
2022-11-08T15:39:00.197Z,19.45
2022-11-08T15:41:32.747Z,19.54
2022-11-08T15:44:25.764Z,19.63
2022-11-08T15:46:53.796Z,19.71
2022-11-08T15:49:22.337Z,19.77
2022-11-08T15:51:50.290Z,19.84
2022-11-08T15:54:18.182Z,19.89
2022-11-08T15:56:45.908Z,19.94
2022-11-08T15:59:18.666Z,20.00
2022-11-08T16:01:54.845Z,20.05
2022-11-08T16:04:22.460Z,20.11
2022-11-08T16:06:50.099Z,20.14
2022-11-08T16:09:17.717Z,20.19
2022-11-08T16:11:45.867Z,20.23
2022-11-08T16:14:15.886Z,20.27
2022-11-08T16:16:43.504Z,20.30
2022-11-08T16:19:18.529Z,20.31
2022-11-08T16:21:46.163Z,20.39
2022-11-08T16:24:13.727Z,20.40
2022-11-08T16:26:42.503Z,20.41
2022-11-08T16:29:17.393Z,20.41
2022-11-08T16:31:45.475Z,20.43
2022-11-08T16:34:13.081Z,20.44
2022-11-08T16:36:42.034Z,20.46
2022-11-08T16:39:10.522Z,20.50
2022-11-08T16:41:42.599Z,20.51
2022-11-08T16:44:10.783Z,20.53
2022-11-08T16:46:38.359Z,20.53
2022-11-08T16:49:06.447Z,20.54
2022-11-08T16:51:33.968Z,20.56
2022-11-08T16:54:03.866Z,20.58
2022-11-08T16:56:31.419Z,20.59
2022-11-08T16:58:59.028Z,20.61
2022-11-08T17:01:29.263Z,20.64
2022-11-08T17:03:56.869Z,20.61
2022-11-08T17:06:24.509Z,20.61
2022-11-08T17:08:52.111Z,20.59
2022-11-08T17:11:21.916Z,20.56
2022-11-08T17:13:49.526Z,20.52
2022-11-08T17:16:18.528Z,20.46
2022-11-08T17:18:51.274Z,20.41
2022-11-08T17:21:43.773Z,20.37
2022-11-08T17:24:08.276Z,20.33
2022-11-08T17:26:37.304Z,20.29
2022-11-08T17:29:06.546Z,20.24
2022-11-08T17:31:34.435Z,20.20
2022-11-08T17:34:01.994Z,20.13
2022-11-08T17:36:29.549Z,20.10
2022-11-08T17:38:57.108Z,20.04
2022-11-08T17:41:24.726Z,19.98
2022-11-08T17:43:53.796Z,19.94
2022-11-08T17:46:21.404Z,19.91
2022-11-08T17:48:49.028Z,19.88
2022-11-08T17:51:16.672Z,19.85
2022-11-08T17:53:44.294Z,19.82
2022-11-08T17:56:12.964Z,19.80
2022-11-08T17:58:41.137Z,19.78
2022-11-08T18:01:10.298Z,19.76
2022-11-08T18:03:38.021Z,19.74
2022-11-08T18:06:06.644Z,19.73
2022-11-08T18:08:34.847Z,19.73
2022-11-08T18:11:02.636Z,19.73
2022-11-08T18:13:30.350Z,19.71
2022-11-08T18:16:06.267Z,19.71
2022-11-08T18:18:35.240Z,19.72
2022-11-08T18:21:02.800Z,19.71
2022-11-08T18:23:30.425Z,19.71
2022-11-08T18:25:58.018Z,19.69
2022-11-08T18:28:25.822Z,19.69
2022-11-08T18:30:53.504Z,19.69
2022-11-08T18:33:21.431Z,19.68
2022-11-08T18:35:50.774Z,19.67
2022-11-08T18:38:18.307Z,19.67
2022-11-08T18:40:46.332Z,19.65
2022-11-08T18:43:13.884Z,19.65
2022-11-08T18:45:41.586Z,19.63
2022-11-08T18:48:09.191Z,19.63
2022-11-08T18:50:37.468Z,19.63
2022-11-08T18:53:07.036Z,19.62
2022-11-08T18:55:34.715Z,19.64
2022-11-08T18:58:02.332Z,19.68
2022-11-08T19:00:29.904Z,19.73
2022-11-08T19:02:57.520Z,19.80
2022-11-08T19:05:25.064Z,19.86
2022-11-08T19:07:52.622Z,19.91
2022-11-08T19:10:21.595Z,19.96
2022-11-08T19:12:49.155Z,20.02
2022-11-08T19:15:16.979Z,20.06
2022-11-08T19:17:48.444Z,20.10
2022-11-08T19:20:19.132Z,20.15
2022-11-08T19:22:46.721Z,20.19
2022-11-08T19:25:14.307Z,20.23
2022-11-08T19:27:43.244Z,20.27
2022-11-08T19:30:12.076Z,20.33
2022-11-08T19:32:39.614Z,20.35
2022-11-08T19:35:08.249Z,20.34
2022-11-08T19:37:35.971Z,20.32
2022-11-08T19:40:03.822Z,20.28
2022-11-08T19:42:31.436Z,20.24
2022-11-08T19:45:00.691Z,20.21
2022-11-08T19:47:28.302Z,20.18
2022-11-08T19:49:55.866Z,20.15
2022-11-08T19:52:23.495Z,20.12
2022-11-08T19:54:51.236Z,20.09
2022-11-08T19:57:18.775Z,20.05
2022-11-08T19:59:46.395Z,20.02
2022-11-08T20:02:15.400Z,19.99
2022-11-08T20:04:43.211Z,19.96
2022-11-08T20:07:10.837Z,19.94
2022-11-08T20:09:38.434Z,19.93
2022-11-08T20:12:06.208Z,19.90
2022-11-08T20:14:33.795Z,19.88
2022-11-08T20:17:01.348Z,19.86
2022-11-08T20:19:30.605Z,19.84
2022-11-08T20:21:58.528Z,19.81
2022-11-08T20:24:26.099Z,19.78
2022-11-08T20:26:55.329Z,19.78
2022-11-08T20:29:22.928Z,19.76
2022-11-08T20:31:51.046Z,19.73
2022-11-08T20:34:18.904Z,19.71
2022-11-08T20:36:48.388Z,19.68
2022-11-08T20:39:16.032Z,19.67
2022-11-08T20:41:43.725Z,19.65
2022-11-08T20:44:11.407Z,19.63
2022-11-08T20:46:39.030Z,19.62
2022-11-08T20:49:06.744Z,19.62
2022-11-08T20:51:34.408Z,19.59
2022-11-08T20:54:03.703Z,19.58
2022-11-08T20:56:31.309Z,19.56
2022-11-08T20:58:59.048Z,19.54
2022-11-08T21:01:27.845Z,19.54
2022-11-08T21:03:55.781Z,19.52
2022-11-08T21:06:24.841Z,19.52
2022-11-08T21:09:05.797Z,19.50
2022-11-08T21:11:39.101Z,19.50
2022-11-08T21:14:06.821Z,19.48
2022-11-08T21:16:59.399Z,19.47
2022-11-08T21:19:23.452Z,19.46
2022-11-08T21:21:51.068Z,19.44
2022-11-08T21:24:18.776Z,19.45
2022-11-08T21:26:47.817Z,19.43
2022-11-08T21:29:15.412Z,19.43
2022-11-08T21:31:43.054Z,19.42
2022-11-08T21:34:10.692Z,19.43
2022-11-08T21:36:38.274Z,19.42
2022-11-08T21:39:05.840Z,19.41
2022-11-08T21:41:33.479Z,19.40
2022-11-08T21:44:02.428Z,19.39
2022-11-08T21:46:30.072Z,19.39
2022-11-08T21:48:58.367Z,19.39
2022-11-08T21:51:25.982Z,19.38
2022-11-08T21:53:55.122Z,19.36
2022-11-08T21:56:23.649Z,19.35
2022-11-08T21:58:51.223Z,19.35
2022-11-08T22:01:22.264Z,19.35
2022-11-08T22:03:52.105Z,19.34
2022-11-08T22:06:21.436Z,19.34
2022-11-08T22:08:49.172Z,19.34
2022-11-08T22:11:16.757Z,19.34
2022-11-08T22:13:44.346Z,19.32
2022-11-08T22:16:11.994Z,19.32
2022-11-08T22:21:42.886Z,19.31
2022-11-08T22:24:11.939Z,19.30
2022-11-08T22:26:39.661Z,19.29
2022-11-08T22:29:07.512Z,19.30
2022-11-08T22:31:35.176Z,19.29
2022-11-08T22:34:04.280Z,19.29
2022-11-08T22:36:32.281Z,19.29
2022-11-08T22:39:00.046Z,19.29
2022-11-08T22:41:27.685Z,19.27
2022-11-08T22:43:55.454Z,19.27
2022-11-08T22:46:23.067Z,19.27
2022-11-08T22:48:50.624Z,19.26
2022-11-08T22:51:19.556Z,19.26
2022-11-08T22:53:47.119Z,19.26
2022-11-08T22:56:14.681Z,19.25
2022-11-08T22:58:42.314Z,19.25
2022-11-08T23:01:11.799Z,19.25
2022-11-08T23:03:39.524Z,19.24
2022-11-08T23:06:07.138Z,19.24
2022-11-08T23:08:36.111Z,19.24
2022-11-08T23:11:21.265Z,19.23
2022-11-08T23:14:06.529Z,19.22
2022-11-08T23:16:36.388Z,19.22
2022-11-08T23:19:23.577Z,19.21
2022-11-08T23:22:08.808Z,19.21
2022-11-08T23:24:37.783Z,19.21
2022-11-08T23:27:23.402Z,19.20
2022-11-08T23:30:08.701Z,19.20
2022-11-08T23:32:36.354Z,19.19
2022-11-08T23:35:04.241Z,19.17
2022-11-08T23:37:32.079Z,19.18
2022-11-08T23:40:18.476Z,19.18
2022-11-08T23:43:03.821Z,19.17
2022-11-08T23:45:31.504Z,19.17
2022-11-08T23:48:00.269Z,19.17
2022-11-08T23:50:27.825Z,19.16
2022-11-08T23:52:55.431Z,19.16
2022-11-08T23:55:24.447Z,19.16
2022-11-08T23:57:52.068Z,19.15
